Time;durP1;ratioP1;P1;durP2;ratioP2;P2;SDS_P1;SDS_P2;PMS_P1;PMS_P2;Temp;Humidity;BMP_temperature;BMP_pressure;BME280_temperature;BME280_humidity;BME280_pressure;Samples;Min_cycle;Max_cycle;Signal;HPM_P1;HPM_P2
2022/04/30 00:00:35;;;;;;;4.85;2.40;;;;;;;10.86;52.56;99389.28;4484743;31;20207;-71
2022/04/30 00:03:03;;;;;;;3.42;2.40;;;;;;;10.93;52.22;99387.81;4484475;31;20179;-71
2022/04/30 00:05:31;;;;;;;5.00;2.30;;;;;;;10.93;52.68;99382.56;4484675;31;20157;-71
2022/04/30 00:07:58;;;;;;;5.05;2.37;;;;;;;10.86;52.80;99389.28;4484423;31;20097;-71
2022/04/30 00:10:26;;;;;;;4.32;2.60;;;;;;;10.83;52.94;99391.19;4484393;31;20109;-71
2022/04/30 00:12:54;;;;;;;4.20;2.90;;;;;;;10.75;53.14;99393.59;4484175;31;20088;-71
2022/04/30 00:15:21;;;;;;;4.45;2.70;;;;;;;10.76;53.03;99382.13;4484478;31;20173;-71
2022/04/30 00:17:50;;;;;;;4.95;2.58;;;;;;;10.70;52.62;99389.66;4484448;31;20192;-71
2022/04/30 00:20:17;;;;;;;5.07;2.60;;;;;;;10.62;53.73;99385.03;4484409;31;20076;-71
2022/04/30 00:22:45;;;;;;;6.62;2.62;;;;;;;10.61;53.12;99380.75;4484574;31;20092;-71
2022/04/30 00:25:14;;;;;;;3.80;2.47;;;;;;;10.63;52.82;99386.72;4484332;32;20126;-71
2022/04/30 00:27:41;;;;;;;3.40;2.47;;;;;;;10.62;53.11;99385.03;4484343;32;20383;-71
2022/04/30 00:30:09;;;;;;;6.03;2.62;;;;;;;10.70;52.58;99389.66;4484312;31;20107;-71
2022/04/30 00:32:37;;;;;;;6.40;2.67;;;;;;;10.72;52.60;99380.75;4484234;32;20110;-71
2022/04/30 00:35:05;;;;;;;6.30;2.75;;;;;;;10.70;52.58;99382.63;4484032;31;20517;-71
2022/04/30 00:37:32;;;;;;;5.15;2.60;;;;;;;10.69;52.86;99382.75;4483009;32;20104;-71
2022/04/30 00:40:00;;;;;;;2.95;2.30;;;;;;;10.68;52.76;99381.94;4483913;31;20138;-71
2022/04/30 00:42:27;;;;;;;4.00;2.33;;;;;;;10.61;53.97;99386.00;4483957;31;20111;-71
2022/04/30 00:44:54;;;;;;;6.43;2.45;;;;;;;10.48;54.75;99383.53;4484076;31;20100;-71
2022/04/30 00:47:21;;;;;;;3.80;2.40;;;;;;;10.43;54.36;99389.13;4484328;31;20450;-71
2022/04/30 00:49:48;;;;;;;6.60;2.67;;;;;;;10.40;54.29;99378.03;4484792;31;20482;-71
2022/04/30 00:52:17;;;;;;;4.07;2.60;;;;;;;10.41;53.81;99383.16;4486123;31;20093;-71
2022/04/30 00:54:49;;;;;;;5.70;2.78;;;;;;;10.39;54.10;99381.63;4486011;31;20441;-71
2022/04/30 00:57:21;;;;;;;4.53;2.55;;;;;;;10.51;53.59;99387.66;4484913;32;20588;-71
2022/04/30 00:59:59;;;;;;;5.57;3.62;;;;;;;10.42;53.85;99382.22;4486038;31;20446;-71
2022/04/30 01:02:28;;;;;;;4.55;2.83;;;;;;;10.47;53.69;99392.31;4486115;31;20092;-71
2022/04/30 01:04:58;;;;;;;3.83;2.67;;;;;;;10.48;54.13;99391.37;4485988;31;20151;-71
2022/04/30 01:07:29;;;;;;;5.47;2.60;;;;;;;10.49;54.04;99393.03;4486100;31;20115;-71
2022/04/30 01:09:57;;;;;;;7.03;3.10;;;;;;;10.51;54.12;99391.13;4486098;31;20084;-71
2022/04/30 01:12:24;;;;;;;4.07;2.55;;;;;;;10.53;53.90;99388.41;4485775;31;20119;-71
2022/04/30 01:14:52;;;;;;;5.43;3.10;;;;;;;10.54;54.12;99384.84;4485915;31;20119;-71
2022/04/30 01:17:20;;;;;;;4.55;3.20;;;;;;;10.51;54.31;99383.28;4486385;31;20164;-71
2022/04/30 01:19:47;;;;;;;5.53;3.40;;;;;;;10.48;54.67;99386.13;4485696;31;20148;-71
2022/04/30 01:22:29;;;;;;;8.05;3.70;;;;;;;10.49;54.66;99379.94;4485940;31;20395;-71
2022/04/30 01:25:01;;;;;;;7.55;4.93;;;;;;;10.54;54.47;99380.41;4485878;31;20261;-71
2022/04/30 01:27:29;;;;;;;6.47;3.33;;;;;;;10.48;55.08;99375.66;4485986;31;20084;-71
2022/04/30 01:29:59;;;;;;;7.93;4.40;;;;;;;10.45;55.55;99379.34;4485661;31;20147;-71
2022/04/30 01:38:15;;;;;;;7.32;3.80;;;;;;;10.25;56.48;99375.66;4486190;31;20468;-71
2022/04/30 01:40:42;;;;;;;8.57;4.30;;;;;;;10.21;56.54;99376.00;4485385;32;20139;-71
2022/04/30 01:43:10;;;;;;;6.97;4.25;;;;;;;10.15;57.03;99372.09;4485824;31;20437;-71
2022/04/30 01:45:37;;;;;;;6.12;4.03;;;;;;;10.18;57.00;99368.41;4485527;31;20093;-71
2022/04/30 01:48:05;;;;;;;5.65;4.07;;;;;;;10.16;57.35;99359.81;4485844;31;20167;-71
2022/04/30 01:50:35;;;;;;;5.68;3.95;;;;;;;10.12;57.84;99367.09;4485738;32;20110;-71
2022/04/30 01:53:02;;;;;;;8.38;4.47;;;;;;;10.07;57.80;99356.97;4485709;31;20141;-71
2022/04/30 01:55:30;;;;;;;9.88;4.68;;;;;;;10.09;57.70;99360.28;4485531;31;20096;-71
2022/04/30 01:57:58;;;;;;;7.55;4.80;;;;;;;10.11;58.06;99363.66;4485719;31;20099;-71
2022/04/30 02:00:26;;;;;;;14.25;4.82;;;;;;;10.12;57.70;99357.44;4485393;31;20096;-71
2022/04/30 02:02:54;;;;;;;5.65;4.60;;;;;;;10.09;58.28;99360.28;4485721;32;20092;-71
2022/04/30 02:05:22;;;;;;;10.40;4.53;;;;;;;10.03;58.64;99355.53;4485457;31;20093;-71
2022/04/30 02:07:58;;;;;;;9.48;5.07;;;;;;;9.96;59.11;99364.81;4485640;31;20084;-71
2022/04/30 02:10:26;;;;;;;9.48;4.68;;;;;;;9.92;59.30;99356.38;4485168;31;20155;-71
2022/04/30 02:12:54;;;;;;;7.07;5.35;;;;;;;9.98;59.07;99354.22;4485402;31;20100;-71
2022/04/30 02:15:21;;;;;;;9.27;5.32;;;;;;;9.90;59.50;99354.81;4484428;32;20092;-71
2022/04/30 02:17:50;;;;;;;8.13;4.68;;;;;;;9.91;59.78;99356.50;4484217;32;20125;-71
2022/04/30 02:20:28;;;;;;;9.07;4.93;;;;;;;9.87;59.94;99355.06;4484030;32;20114;-71
2022/04/30 02:22:57;;;;;;;6.70;4.93;;;;;;;9.87;60.02;99350.66;4485460;32;20546;-71
2022/04/30 02:25:25;;;;;;;6.97;4.60;;;;;;;9.79;60.41;99350.41;4485529;31;20095;-71
2022/04/30 02:27:55;;;;;;;6.68;4.75;;;;;;;9.77;60.36;99354.94;4485529;31;20100;-71
2022/04/30 02:30:23;;;;;;;6.55;4.70;;;;;;;9.67;60.51;99349.56;4485144;31;20101;-71
2022/04/30 02:33:04;;;;;;;6.93;5.00;;;;;;;9.67;60.87;99354.78;4485541;31;20140;-71
2022/04/30 02:35:34;;;;;;;8.75;5.53;;;;;;;9.61;60.97;99344.78;4485529;31;20172;-71
2022/04/30 02:38:05;;;;;;;7.37;5.00;;;;;;;9.56;61.22;99353.00;4485594;31;20114;-71
2022/04/30 02:40:33;;;;;;;7.93;5.32;;;;;;;9.59;61.40;99346.72;4485064;32;20491;-71
2022/04/30 02:43:06;;;;;;;7.28;5.30;;;;;;;9.59;61.23;99346.72;4485436;31;20091;-71
2022/04/30 02:45:35;;;;;;;8.77;5.35;;;;;;;9.54;61.53;99344.44;4485217;31;20096;-71
2022/04/30 02:48:04;;;;;;;10.88;4.62;;;;;;;9.53;61.87;99341.94;4485557;31;20100;-71
2022/04/30 02:50:31;;;;;;;7.95;4.95;;;;;;;9.63;61.21;99336.84;4485371;31;20457;-71
2022/04/30 02:52:58;;;;;;;8.57;5.15;;;;;;;9.63;61.55;99335.06;4485271;31;20167;-71
2022/04/30 02:55:27;;;;;;;7.97;5.37;;;;;;;9.59;61.55;99325.78;4485562;31;20218;-71
2022/04/30 03:00:44;;;;;;;10.93;5.50;;;;;;;9.53;61.84;99321.03;4485657;31;20080;-71
2022/04/30 03:03:14;;;;;;;9.23;4.65;;;;;;;9.52;61.75;99321.97;4485449;31;20169;-71
2022/04/30 03:05:43;;;;;;;7.97;5.95;;;;;;;9.52;61.62;99320.19;4485347;31;20478;-71
2022/04/30 03:08:13;;;;;;;8.63;5.57;;;;;;;9.63;61.46;99324.59;4485410;31;20450;-71
2022/04/30 03:10:41;;;;;;;8.18;5.05;;;;;;;9.64;61.30;99321.03;4484802;31;20127;-71
2022/04/30 03:13:09;;;;;;;11.50;5.47;;;;;;;9.63;61.51;99331.59;4484073;31;20152;-71
2022/04/30 03:15:39;;;;;;;8.02;5.07;;;;;;;9.65;61.70;99327.94;4484941;32;20427;-71
2022/04/30 03:23:39;;;;;;;8.10;5.30;;;;;;;9.68;61.25;99332.94;4485036;31;20085;-71
2022/04/30 03:26:08;;;;;;;9.25;5.50;;;;;;;9.68;61.46;99325.06;4485159;31;20144;-71
2022/04/30 03:28:39;;;;;;;9.63;5.30;;;;;;;9.67;61.53;99326.00;4485219;31;20600;-71
2022/04/30 03:31:07;;;;;;;8.00;5.05;;;;;;;9.67;61.54;99326.00;4485033;31;20100;-71
2022/04/30 03:33:34;;;;;;;9.02;5.68;;;;;;;9.68;61.56;99330.31;4485005;31;20414;-71
2022/04/30 03:36:02;;;;;;;8.52;5.30;;;;;;;9.69;61.59;99329.38;4484832;31;20103;-71
2022/04/30 03:38:29;;;;;;;9.60;5.18;;;;;;;9.69;61.98;99329.38;4483805;32;20108;-71
2022/04/30 03:40:57;;;;;;;7.07;5.00;;;;;;;9.70;61.47;99333.62;4484621;31;20674;-71
2022/04/30 03:43:24;;;;;;;9.40;5.43;;;;;;;9.72;61.44;99330.91;4484889;31;20085;-71
2022/04/30 03:45:51;;;;;;;7.82;4.80;;;;;;;9.76;61.32;99337.56;4484810;31;20088;-71
2022/04/30 03:48:19;;;;;;;10.75;5.78;;;;;;;9.77;61.48;99328.78;4484987;31;20122;-71
2022/04/30 03:50:46;;;;;;;7.53;5.18;;;;;;;9.83;61.01;99330.91;4484734;31;20084;-71
2022/04/30 03:53:13;;;;;;;9.05;5.53;;;;;;;9.83;61.56;99327.47;4483477;32;20114;-71
2022/04/30 03:55:40;;;;;;;8.05;5.05;;;;;;;9.88;61.19;99331.37;4484756;31;20119;-71
2022/04/30 03:58:07;;;;;;;7.87;5.22;;;;;;;9.87;61.53;99334.12;4484561;32;20225;-71
2022/04/30 04:00:34;;;;;;;9.77;5.22;;;;;;;9.87;61.05;99334.97;4484738;31;20497;-71
2022/04/30 04:03:02;;;;;;;10.90;5.37;;;;;;;9.95;61.41;99326.53;4484411;31;20539;-71
2022/04/30 04:05:31;;;;;;;7.15;5.10;;;;;;;10.00;60.81;99329.59;4484695;31;20096;-71
2022/04/30 04:07:59;;;;;;;8.45;5.87;;;;;;;10.08;60.70;99327.22;4484359;31;20445;-71
2022/04/30 04:10:27;;;;;;;8.05;5.62;;;;;;;10.09;60.69;99328.88;4484428;31;20519;-71
2022/04/30 04:17:37;;;;;;;8.07;4.90;;;;;;;10.25;60.19;99330.28;4484406;31;20442;-71
2022/04/30 04:18:40;;;;;;;6.65;4.50;;;;;;;10.38;59.66;99338.87;4466400;32;20097;-71
2022/04/30 04:21:08;;;;;;;10.50;5.45;;;;;;;10.52;59.33;99339.56;4466429;32;20171;-71
2022/04/30 04:26:21;;;;;;;6.25;4.50;;;;;;;10.58;59.32;99334.69;4468109;32;20101;-71
2022/04/30 04:28:48;;;;;;;8.68;5.00;;;;;;;10.75;58.47;99343.81;4468101;32;20097;-71
2022/04/30 04:31:22;;;;;;;7.75;5.28;;;;;;;10.88;58.29;99345.41;4446511;32;20475;-71
2022/04/30 04:33:50;;;;;;;6.22;4.53;;;;;;;10.90;58.66;99344.34;4436986;32;20151;-71
2022/04/30 04:36:18;;;;;;;12.55;5.43;;;;;;;10.98;58.26;99348.97;4424198;32;20574;-71
2022/04/30 04:38:46;;;;;;;11.05;5.15;;;;;;;11.02;58.16;99337.25;4424432;32;20128;-71
2022/04/30 04:41:13;;;;;;;5.57;4.47;;;;;;;11.11;58.02;99351.41;4436727;32;20137;-71
2022/04/30 04:43:40;;;;;;;9.25;4.90;;;;;;;11.23;57.59;99353.00;4436855;32;20395;-71
2022/04/30 04:46:07;;;;;;;8.05;4.70;;;;;;;11.32;57.27;99351.41;4437086;32;20109;-71
2022/04/30 04:48:36;;;;;;;7.05;4.55;;;;;;;11.46;57.44;99352.87;4437211;32;20201;-71
2022/04/30 04:51:03;;;;;;;9.80;4.70;;;;;;;11.52;56.30;99353.22;4437046;32;20089;-71
2022/04/30 04:53:30;;;;;;;9.10;4.95;;;;;;;11.58;56.95;99351.84;4442036;32;20458;-71
2022/04/30 04:55:58;;;;;;;7.57;4.80;;;;;;;11.68;56.75;99351.94;4469112;32;20459;-71
2022/04/30 04:58:25;;;;;;;8.15;5.10;;;;;;;11.77;56.11;99352.94;4470361;32;20445;-71
2022/04/30 05:00:53;;;;;;;8.82;5.22;;;;;;;11.95;55.69;99355.81;4470442;32;20433;-71
2022/04/30 05:03:20;;;;;;;8.18;4.50;;;;;;;12.00;55.95;99341.31;4470336;32;20474;-71
2022/04/30 05:05:48;;;;;;;6.40;4.37;;;;;;;12.02;55.00;99357.78;4470633;32;20457;-71
2022/04/30 05:08:15;;;;;;;6.60;4.50;;;;;;;12.17;54.80;99353.03;4470327;32;20097;-71
2022/04/30 05:10:42;;;;;;;7.97;4.43;;;;;;;12.27;53.78;99347.78;4470129;32;20205;-71
2022/04/30 05:13:09;;;;;;;7.37;4.45;;;;;;;12.48;54.57;99350.31;4470011;32;20088;-71
2022/04/30 05:15:36;;;;;;;6.45;4.57;;;;;;;12.45;54.06;99355.84;4470359;32;20115;-71
2022/04/30 05:18:04;;;;;;;8.20;5.10;;;;;;;12.56;53.21;99355.72;4470192;32;20157;-71
2022/04/30 05:20:32;;;;;;;6.85;4.62;;;;;;;12.63;52.49;99355.19;4470413;32;20149;-71
2022/04/30 05:23:09;;;;;;;6.95;4.57;;;;;;;12.69;52.81;99349.41;4469022;32;20107;-71
2022/04/30 05:25:40;;;;;;;7.43;4.25;;;;;;;12.89;53.67;99358.97;4470218;32;20175;-71
2022/04/30 05:28:08;;;;;;;6.65;4.20;;;;;;;12.94;52.18;99348.88;4470168;32;20100;-71
2022/04/30 05:30:37;;;;;;;7.80;4.37;;;;;;;12.87;51.99;99353.03;4476908;32;20167;-71
2022/04/30 05:33:04;;;;;;;6.82;4.20;;;;;;;12.90;52.39;99357.16;4485496;32;20103;-71
2022/04/30 05:35:32;;;;;;;7.95;4.93;;;;;;;12.90;52.66;99360.63;4485274;31;20093;-71
2022/04/30 05:37:59;;;;;;;9.32;4.78;;;;;;;12.89;52.03;99356.34;4485759;31;20604;-71
2022/04/30 05:40:26;;;;;;;7.22;4.40;;;;;;;13.08;52.07;99358.16;4485592;32;20092;-71
2022/04/30 05:42:53;;;;;;;10.35;4.70;;;;;;;13.13;51.88;99357.72;4485690;31;20123;-71
2022/04/30 05:45:21;;;;;;;8.38;4.12;;;;;;;13.21;51.98;99352.59;4485723;32;20116;-71
2022/04/30 05:47:48;;;;;;;6.45;4.22;;;;;;;13.37;51.94;99364.38;4485763;31;20374;-71
2022/04/30 05:50:15;;;;;;;8.73;4.60;;;;;;;13.64;51.69;99356.59;4485920;32;20122;-71
2022/04/30 05:52:42;;;;;;;7.30;4.37;;;;;;;13.76;51.88;99354.63;4485514;31;20097;-71
2022/04/30 05:55:10;;;;;;;7.43;4.50;;;;;;;13.77;50.74;99360.72;4485770;32;20429;-71
2022/04/30 05:57:37;;;;;;;6.82;3.97;;;;;;;13.59;51.06;99358.81;4485610;31;20110;-71
2022/04/30 06:00:05;;;;;;;7.82;4.28;;;;;;;13.60;50.33;99354.38;4485565;31;20118;-71
2022/04/30 06:02:32;;;;;;;8.05;4.65;;;;;;;13.68;50.58;99359.75;4485601;32;20112;-71
2022/04/30 06:04:59;;;;;;;6.57;4.50;;;;;;;13.82;50.44;99358.47;4485276;31;20096;-71
2022/04/30 06:07:26;;;;;;;7.50;4.45;;;;;;;13.89;50.86;99358.75;4485911;31;20092;-72
2022/04/30 06:09:54;;;;;;;5.93;3.90;;;;;;;14.15;50.23;99356.28;4485273;31;20088;-71
2022/04/30 06:12:21;;;;;;;8.30;4.53;;;;;;;14.15;49.94;99359.72;4485408;31;20110;-71
2022/04/30 06:14:48;;;;;;;7.75;4.47;;;;;;;14.15;50.81;99357.09;4485396;31;20088;-71
2022/04/30 06:17:16;;;;;;;5.78;4.07;;;;;;;14.05;50.92;99364.22;4485796;31;20156;-71
2022/04/30 06:19:43;;;;;;;5.87;4.30;;;;;;;14.27;50.05;99356.91;4485468;32;20534;-71
2022/04/30 06:22:11;;;;;;;6.62;4.05;;;;;;;14.16;49.89;99356.13;4485441;31;20092;-72
2022/04/30 06:24:39;;;;;;;9.23;4.43;;;;;;;14.32;49.41;99363.41;4485399;32;20148;-71
2022/04/30 06:27:06;;;;;;;6.65;4.85;;;;;;;14.26;48.86;99364.00;4485525;31;20575;-71
2022/04/30 06:29:33;;;;;;;5.87;4.25;;;;;;;14.47;49.40;99365.53;4485383;31;20099;-71
2022/04/30 06:32:01;;;;;;;6.85;4.35;;;;;;;14.59;51.20;99363.53;4469775;32;20172;-71
2022/04/30 06:34:29;;;;;;;7.87;4.12;;;;;;;14.83;49.78;99353.25;4469454;32;20165;-71
2022/04/30 06:36:56;;;;;;;6.32;3.78;;;;;;;14.96;49.37;99363.47;4469759;32;20483;-71
2022/04/30 06:39:23;;;;;;;5.50;3.65;;;;;;;15.07;49.35;99360.56;4469729;32;20116;-71
2022/04/30 06:41:50;;;;;;;6.53;4.30;;;;;;;14.89;48.70;99357.12;4469552;32;20111;-72
2022/04/30 06:44:18;;;;;;;4.82;4.07;;;;;;;14.81;49.09;99354.41;4469569;32;20101;-71
2022/04/30 06:46:45;;;;;;;7.43;4.32;;;;;;;14.80;48.46;99358.84;4468729;32;20096;-72
2022/04/30 06:49:12;;;;;;;5.68;4.00;;;;;;;15.04;48.75;99360.87;4469754;32;20110;-71
2022/04/30 06:51:39;;;;;;;5.40;4.03;;;;;;;14.95;48.13;99355.69;4469792;32;20101;-71
2022/04/30 06:57:08;;;;;;;6.35;4.00;;;;;;;15.18;48.46;99351.59;4469583;32;20106;-71
2022/04/30 06:59:40;;;;;;;5.15;3.85;;;;;;;15.44;48.83;99364.84;4469565;32;20168;-71
2022/04/30 07:02:17;;;;;;;6.62;4.22;;;;;;;15.41;46.33;99364.31;4469620;32;20081;-71
2022/04/30 07:04:49;;;;;;;6.68;4.20;;;;;;;15.38;47.83;99352.28;4469469;32;20119;-71
2022/04/30 07:07:19;;;;;;;9.88;4.45;;;;;;;15.27;46.67;99360.41;4469655;32;20088;-71
2022/04/30 07:09:48;;;;;;;7.85;4.43;;;;;;;15.34;47.84;99353.53;4469348;32;20088;-71
2022/04/30 07:12:17;;;;;;;5.55;4.15;;;;;;;15.42;48.08;99356.22;4469352;32;20089;-71
2022/04/30 07:14:45;;;;;;;7.78;4.62;;;;;;;15.75;47.98;99358.28;4469202;32;20156;-71
2022/04/30 07:17:14;;;;;;;6.62;4.65;;;;;;;15.80;47.60;99361.31;4469539;32;20789;-71
2022/04/30 07:19:41;;;;;;;8.45;5.07;;;;;;;15.95;47.66;99359.72;4468125;32;20138;-71
2022/04/30 07:22:09;;;;;;;8.07;4.37;;;;;;;16.01;47.17;99352.19;4469370;32;20088;-72
2022/04/30 07:24:36;;;;;;;10.95;5.32;;;;;;;16.36;47.57;99348.50;4469461;32;20113;-71
2022/04/30 07:27:05;;;;;;;6.03;4.62;;;;;;;16.25;46.74;99349.62;4469340;32;20119;-72
2022/04/30 07:29:32;;;;;;;9.25;5.07;;;;;;;16.35;45.85;99351.31;4468128;32;20092;-72
2022/04/30 07:32:00;;;;;;;14.85;4.53;;;;;;;16.29;46.03;99355.41;4485201;32;20159;-72
2022/04/30 07:34:27;;;;;;;9.80;4.80;;;;;;;16.42;47.11;99350.50;4484637;31;20097;-72
2022/04/30 07:36:55;;;;;;;6.75;4.30;;;;;;;16.48;46.08;99347.22;4485041;31;20131;-71
2022/04/30 07:39:23;;;;;;;9.90;5.20;;;;;;;16.48;46.80;99341.94;4485062;32;20131;-71
2022/04/30 07:41:53;;;;;;;7.72;4.87;;;;;;;16.41;47.18;99348.03;4484879;32;20092;-71
2022/04/30 07:44:22;;;;;;;7.30;4.57;;;;;;;16.62;47.31;99344.94;4485089;31;20104;-72
2022/04/30 07:46:49;;;;;;;9.63;5.00;;;;;;;16.59;45.79;99342.62;4484843;31;20111;-72
2022/04/30 07:49:17;;;;;;;6.53;4.95;;;;;;;16.85;46.26;99348.66;4484895;31;20183;-72
2022/04/30 07:51:53;;;;;;;9.68;5.53;;;;;;;16.98;46.20;99340.25;4484798;31;20123;-71
2022/04/30 07:54:21;;;;;;;9.45;5.22;;;;;;;17.27;47.96;99336.25;4484895;31;20135;-72
2022/04/30 07:56:55;;;;;;;9.07;5.00;;;;;;;17.20;44.34;99346.72;4485157;31;20115;-72
2022/04/30 07:59:23;;;;;;;8.35;5.35;;;;;;;17.51;45.08;99342.53;4484451;31;20111;-71
2022/04/30 08:01:50;;;;;;;9.27;4.78;;;;;;;17.76;44.73;99348.62;4484804;31;20381;-72
2022/04/30 08:04:18;;;;;;;7.32;5.00;;;;;;;17.92;42.57;99337.19;4484602;32;20173;-72
2022/04/30 08:06:45;;;;;;;8.20;4.78;;;;;;;17.68;44.02;99338.03;4484761;31;20476;-72
2022/04/30 08:09:12;;;;;;;14.57;5.30;;;;;;;17.49;43.22;99340.06;4484686;32;20100;-72
2022/04/30 08:11:41;;;;;;;8.82;4.82;;;;;;;17.49;43.21;99341.91;4484340;32;20099;-72
2022/04/30 08:14:08;;;;;;;8.55;5.80;;;;;;;17.69;44.14;99342.34;4484864;32;20161;-72
2022/04/30 08:16:35;;;;;;;8.48;5.12;;;;;;;17.95;43.59;99349.28;4484279;31;20096;-72
2022/04/30 08:19:03;;;;;;;6.35;4.65;;;;;;;17.87;43.46;99353.56;4484706;31;20439;-72
2022/04/30 08:21:30;;;;;;;8.35;4.60;;;;;;;17.85;42.76;99344.97;4484590;31;20449;-72
2022/04/30 08:23:57;;;;;;;14.40;4.45;;;;;;;18.28;41.74;99357.94;4484599;31;20089;-72
2022/04/30 08:26:24;;;;;;;8.38;4.65;;;;;;;18.30;41.02;99347.16;4484445;31;20477;-72
2022/04/30 08:28:51;;;;;;;6.25;4.15;;;;;;;18.16;42.79;99349.53;4484757;31;20092;-72
2022/04/30 08:31:19;;;;;;;6.87;3.90;;;;;;;18.14;40.54;99351.53;4484103;32;20136;-72
2022/04/30 08:33:46;;;;;;;6.75;4.05;;;;;;;18.02;42.17;99347.59;4483844;32;20160;-72
2022/04/30 08:36:14;;;;;;;6.50;3.72;;;;;;;18.04;41.83;99346.41;4484064;31;20087;-72
2022/04/30 08:38:41;;;;;;;5.25;4.00;;;;;;;18.09;40.46;99344.09;4484282;32;20100;-72
2022/04/30 08:41:10;;;;;;;6.95;3.95;;;;;;;18.12;40.51;99356.16;4483847;32;20080;-71
2022/04/30 08:43:39;;;;;;;7.97;3.72;;;;;;;18.16;42.00;99349.53;4484118;31;20228;-72
2022/04/30 08:46:06;;;;;;;6.60;3.70;;;;;;;18.32;41.24;99342.50;4483884;31;20095;-71
2022/04/30 08:48:34;;;;;;;6.72;4.22;;;;;;;18.24;38.34;99354.81;4484333;32;20092;-72
2022/04/30 08:51:02;;;;;;;8.65;3.92;;;;;;;18.08;41.77;99349.56;4482781;32;20103;-72
2022/04/30 08:53:29;;;;;;;7.25;3.80;;;;;;;18.06;42.67;99346.25;4484034;31;20093;-72
2022/04/30 08:55:57;;;;;;;5.78;3.45;;;;;;;18.26;39.06;99338.72;4483831;31;20488;-72
2022/04/30 08:58:24;;;;;;;5.55;3.62;;;;;;;18.29;37.87;99340.19;4483853;31;20115;-72
2022/04/30 09:00:51;;;;;;;8.13;3.95;;;;;;;18.48;39.14;99336.28;4483809;31;20115;-72
2022/04/30 09:03:20;;;;;;;9.95;4.10;;;;;;;18.52;40.06;99330.47;4483847;31;20496;-72
2022/04/30 09:05:48;;;;;;;6.22;3.45;;;;;;;18.67;40.38;99330.53;4483849;31;20152;-72
2022/04/30 09:08:16;;;;;;;8.18;4.20;;;;;;;18.90;40.48;99325.25;4483667;31;20187;-72
2022/04/30 09:10:44;;;;;;;4.20;3.37;;;;;;;19.24;42.63;99325.81;4483183;32;20080;-72
2022/04/30 09:13:14;;;;;;;12.07;4.22;;;;;;;19.32;38.71;99323.09;4485983;31;20131;-72
2022/04/30 09:15:46;;;;;;;6.47;4.00;;;;;;;19.53;38.88;99325.06;4486032;31;20550;-72
2022/04/30 09:18:15;;;;;;;4.95;3.78;;;;;;;19.43;37.35;99319.19;4486351;32;20130;-72
2022/04/30 09:20:51;;;;;;;4.90;3.58;;;;;;;19.55;38.03;99317.72;4485758;32;20172;-72
2022/04/30 09:23:28;;;;;;;6.45;4.22;;;;;;;19.56;36.98;99314.06;4486151;31;20168;-72
2022/04/30 09:25:57;;;;;;;8.43;4.22;;;;;;;19.44;37.43;99318.16;4485797;31;20106;-72
2022/04/30 09:28:28;;;;;;;5.20;4.37;;;;;;;19.15;37.03;99306.47;4484756;32;20116;-72
2022/04/30 09:31:17;;;;;;;6.97;4.00;;;;;;;19.16;37.29;99313.44;4486028;31;20088;-72
2022/04/30 09:33:50;;;;;;;8.73;4.32;;;;;;;19.81;38.74;99305.84;4485902;31;20201;-72
2022/04/30 09:39:14;;;;;;;5.70;4.15;;;;;;;20.05;36.86;99307.41;4486212;32;20084;-72
2022/04/30 09:41:42;;;;;;;7.93;4.37;;;;;;;20.23;36.14;99304.34;4485927;31;20524;-72
2022/04/30 09:44:10;;;;;;;8.02;4.32;;;;;;;20.37;40.43;99298.16;4486011;31;20089;-72
2022/04/30 09:46:38;;;;;;;5.78;4.12;;;;;;;20.56;37.20;99295.91;4485866;31;20351;-72
2022/04/30 09:54:42;;;;;;;8.90;4.12;;;;;;;21.01;39.16;99291.22;4485757;31;20446;-72
2022/04/30 09:57:11;;;;;;;6.72;4.22;;;;;;;21.35;36.22;99281.66;4485860;31;20092;-72
2022/04/30 09:59:40;;;;;;;8.18;3.95;;;;;;;21.23;35.78;99289.34;4485761;31;20496;-72
2022/04/30 10:02:09;;;;;;;4.50;3.70;;;;;;;20.45;33.84;99283.09;4485616;31;20739;-72
2022/04/30 10:04:37;;;;;;;12.73;3.67;;;;;;;20.62;33.95;99279.19;4485658;32;20497;-72
2022/04/30 10:07:06;;;;;;;5.90;4.22;;;;;;;20.65;36.26;99277.97;4485424;31;20394;-72
2022/04/30 10:09:39;;;;;;;4.75;3.60;;;;;;;20.49;40.10;99271.06;4485694;31;20489;-72
2022/04/30 10:12:19;;;;;;;5.25;3.50;;;;;;;20.88;36.50;99275.16;4484071;32;20092;-72
2022/04/30 10:15:11;;;;;;;7.07;3.65;;;;;;;20.66;33.15;99264.50;4484293;32;20188;-72
2022/04/30 10:17:42;;;;;;;10.30;4.32;;;;;;;20.25;32.98;99265.06;4484214;32;20156;-72
2022/04/30 10:20:18;;;;;;;4.55;3.55;;;;;;;20.14;32.83;99268.22;4485682;31;20084;-72
2022/04/30 10:22:53;;;;;;;5.85;3.25;;;;;;;20.16;32.18;99260.88;4485266;31;20449;-71
2022/04/30 10:25:43;;;;;;;12.88;3.95;;;;;;;20.05;32.51;99264.03;4485962;31;20081;-72
2022/04/30 10:28:10;;;;;;;7.12;3.50;;;;;;;20.08;34.43;99266.31;4485462;32;20092;-72
2022/04/30 10:30:38;;;;;;;6.95;3.50;;;;;;;20.16;33.65;99258.22;4485517;31;20096;-72
2022/04/30 10:33:07;;;;;;;5.25;3.22;;;;;;;20.15;34.52;99260.06;4485267;31;20122;-72
2022/04/30 10:35:38;;;;;;;9.32;3.30;;;;;;;20.19;33.74;99268.47;4485503;31;20144;-72
2022/04/30 10:38:19;;;;;;;5.57;3.28;;;;;;;20.01;32.20;99264.38;4484278;32;20104;-72
2022/04/30 10:40:51;;;;;;;8.50;3.83;;;;;;;20.06;30.94;99255.03;4485667;32;20167;-72
2022/04/30 10:43:26;;;;;;;5.50;3.47;;;;;;;20.18;32.82;99249.03;4485230;31;20150;-72
2022/04/30 10:45:56;;;;;;;5.80;4.07;;;;;;;20.20;32.77;99244.34;4485458;32;20537;-72
2022/04/30 10:48:24;;;;;;;7.85;3.50;;;;;;;20.29;32.68;99246.91;4485308;31;20157;-72
2022/04/30 10:51:06;;;;;;;6.90;3.45;;;;;;;20.09;32.49;99236.88;4485455;31;20123;-72
2022/04/30 10:53:38;;;;;;;5.87;4.10;;;;;;;20.27;33.60;99241.75;4485308;31;20083;-72
2022/04/30 10:56:06;;;;;;;4.43;3.42;;;;;;;20.17;32.10;99242.06;4485375;31;20110;-72
2022/04/30 10:58:38;;;;;;;4.10;3.25;;;;;;;19.83;29.95;99246.19;4485249;31;20502;-72
2022/04/30 11:01:16;;;;;;;7.57;3.72;;;;;;;20.07;34.85;99236.22;4485361;31;20084;-72
2022/04/30 11:03:45;;;;;;;9.07;3.58;;;;;;;20.32;31.10;99230.56;4485244;31;20103;-72
2022/04/30 11:06:23;;;;;;;4.95;3.30;;;;;;;20.18;31.46;99232.22;4485625;31;20155;-72
2022/04/30 11:08:58;;;;;;;11.23;4.45;;;;;;;20.38;35.07;99225.31;4485235;31;20092;-72
2022/04/30 11:11:26;;;;;;;6.25;4.10;;;;;;;20.23;30.99;99226.34;4483858;32;20148;-72
2022/04/30 11:14:10;;;;;;;5.45;3.50;;;;;;;20.19;35.30;99225.91;4485058;31;20533;-72
2022/04/30 11:16:42;;;;;;;;;;;;;;;20.33;32.56;99211.75;4485633;31;20100;-72
2022/04/30 11:19:12;;;;;;;5.55;3.90;;;;;;;20.21;33.43;99226.53;4485522;31;20046;-72
2022/04/30 11:21:42;;;;;;;6.62;3.20;;;;;;;20.33;32.33;99219.72;4483931;32;20088;-72
2022/04/30 11:24:10;;;;;;;6.50;3.40;;;;;;;20.35;32.69;99220.34;4485034;31;20111;-72
2022/04/30 11:26:41;;;;;;;5.45;3.08;;;;;;;20.70;31.08;99219.69;4485069;31;20221;-72
2022/04/30 11:29:12;;;;;;;3.70;3.28;;;;;;;20.49;33.17;99215.97;4485068;31;20802;-72
2022/04/30 11:31:42;;;;;;;11.85;3.53;;;;;;;20.62;30.33;99209.13;4484937;31;20139;-72
2022/04/30 11:34:15;;;;;;;6.85;3.30;;;;;;;21.13;34.89;99205.47;4483891;31;20149;-72
2022/04/30 11:37:03;;;;;;;9.77;3.62;;;;;;;21.44;34.33;99203.19;4483804;32;20122;-72
2022/04/30 11:39:31;;;;;;;4.25;3.47;;;;;;;21.54;34.92;99199.38;4484644;31;20116;-72
2022/04/30 11:41:59;;;;;;;7.40;3.55;;;;;;;21.32;32.16;99202.09;4484672;31;20115;-72
2022/04/30 11:44:30;;;;;;;5.43;3.25;;;;;;;21.80;32.52;99199.50;4484945;31;20080;-72
2022/04/30 11:46:57;;;;;;;3.92;3.15;;;;;;;21.80;31.70;99204.81;4484906;31;20088;-72
2022/04/30 11:49:26;;;;;;;4.15;3.40;;;;;;;21.55;31.68;99190.34;4485037;32;20179;-72
2022/04/30 11:52:09;;;;;;;;;;;;;;;21.75;28.77;99183.25;4485202;31;20458;-72
2022/04/30 11:54:39;;;;;;;4.95;3.10;;;;;;;21.87;31.53;99182.69;4483457;32;20038;-72
2022/04/30 11:57:07;;;;;;;7.78;3.70;;;;;;;21.37;32.27;99182.84;4484537;32;20494;-72
2022/04/30 11:59:39;;;;;;;6.30;4.28;;;;;;;21.49;33.84;99175.12;4484797;31;20084;-72
2022/04/30 12:02:08;;;;;;;6.25;3.35;;;;;;;21.61;32.55;99169.03;4484885;31;20131;-72
2022/04/30 12:04:41;;;;;;;4.87;3.05;;;;;;;21.71;35.71;99174.03;4484594;31;20096;-72
2022/04/30 12:07:11;;;;;;;8.43;3.60;;;;;;;22.04;35.41;99165.28;4484866;31;20093;-72
2022/04/30 12:09:44;;;;;;;6.65;3.20;;;;;;;22.74;36.71;99175.66;4484664;31;20138;-72
2022/04/30 12:12:18;;;;;;;;;;;;;;;23.15;34.67;99179.09;4484745;31;20575;-72
2022/04/30 12:14:56;;;;;;;3.85;3.35;;;;;;;23.09;29.92;99164.75;4484595;32;20071;-72